sensor_id;sensor_type;location;lat;lon;timestamp;temperature;humidity
34135;DHT22;20410;55.578;12.968;2023-02-15T00:01:48;6.60;1.00
34135;DHT22;20410;55.578;12.968;2023-02-15T00:04:15;6.50;1.00
34135;DHT22;20410;55.578;12.968;2023-02-15T00:06:41;6.50;1.00
34135;DHT22;20410;55.578;12.968;2023-02-15T00:09:09;6.50;1.00
34135;DHT22;20410;55.578;12.968;2023-02-15T00:11:35;6.40;1.00
34135;DHT22;20410;55.578;12.968;2023-02-15T00:14:20;6.40;1.00
34135;DHT22;20410;55.578;12.968;2023-02-15T00:16:47;6.40;1.00
34135;DHT22;20410;55.578;12.968;2023-02-15T00:19:15;6.30;1.00
34135;DHT22;20410;55.578;12.968;2023-02-15T00:21:41;6.30;1.00
34135;DHT22;20410;55.578;12.968;2023-02-15T00:24:09;6.30;1.00
34135;DHT22;20410;55.578;12.968;2023-02-15T00:26:37;6.30;1.00
34135;DHT22;20410;55.578;12.968;2023-02-15T00:29:02;6.40;1.00
34135;DHT22;20410;55.578;12.968;2023-02-15T00:31:29;6.40;1.00
34135;DHT22;20410;55.578;12.968;2023-02-15T00:34:00;6.40;1.00
34135;DHT22;20410;55.578;12.968;2023-02-15T00:36:26;6.40;1.00
34135;DHT22;20410;55.578;12.968;2023-02-15T00:38:51;6.40;1.00
34135;DHT22;20410;55.578;12.968;2023-02-15T00:41:17;6.50;1.00
34135;DHT22;20410;55.578;12.968;2023-02-15T00:43:42;6.40;1.00
34135;DHT22;20410;55.578;12.968;2023-02-15T00:46:08;6.40;1.00
34135;DHT22;20410;55.578;12.968;2023-02-15T00:48:34;6.50;1.00
34135;DHT22;20410;55.578;12.968;2023-02-15T00:51:00;6.50;1.00
34135;DHT22;20410;55.578;12.968;2023-02-15T00:53:27;6.60;1.00
34135;DHT22;20410;55.578;12.968;2023-02-15T00:55:53;6.60;1.00
34135;DHT22;20410;55.578;12.968;2023-02-15T00:58:19;6.50;1.00
34135;DHT22;20410;55.578;12.968;2023-02-15T01:00:45;6.50;1.00
34135;DHT22;20410;55.578;12.968;2023-02-15T01:03:12;6.60;1.00
34135;DHT22;20410;55.578;12.968;2023-02-15T01:05:38;6.60;1.00
34135;DHT22;20410;55.578;12.968;2023-02-15T01:08:04;6.60;1.00
34135;DHT22;20410;55.578;12.968;2023-02-15T01:10:30;6.60;1.00
34135;DHT22;20410;55.578;12.968;2023-02-15T01:12:56;6.60;1.00
34135;DHT22;20410;55.578;12.968;2023-02-15T01:15:22;6.60;1.00
34135;DHT22;20410;55.578;12.968;2023-02-15T01:17:48;6.60;1.00
34135;DHT22;20410;55.578;12.968;2023-02-15T01:20:26;6.60;1.00
34135;DHT22;20410;55.578;12.968;2023-02-15T01:22:53;6.70;1.00
34135;DHT22;20410;55.578;12.968;2023-02-15T01:25:20;6.70;1.00
34135;DHT22;20410;55.578;12.968;2023-02-15T01:27:46;6.70;1.00
34135;DHT22;20410;55.578;12.968;2023-02-15T01:30:13;6.70;1.00
34135;DHT22;20410;55.578;12.968;2023-02-15T01:32:39;6.70;1.00
34135;DHT22;20410;55.578;12.968;2023-02-15T01:35:05;6.80;1.00
34135;DHT22;20410;55.578;12.968;2023-02-15T01:37:32;6.70;1.00
34135;DHT22;20410;55.578;12.968;2023-02-15T01:39:58;6.70;1.00
34135;DHT22;20410;55.578;12.968;2023-02-15T01:42:26;6.60;1.00
34135;DHT22;20410;55.578;12.968;2023-02-15T01:44:56;6.60;1.00
34135;DHT22;20410;55.578;12.968;2023-02-15T01:47:46;6.60;1.00
34135;DHT22;20410;55.578;12.968;2023-02-15T01:55:52;6.60;1.00
34135;DHT22;20410;55.578;12.968;2023-02-15T01:58:19;6.70;1.00
34135;DHT22;20410;55.578;12.968;2023-02-15T02:00:46;6.70;1.00
34135;DHT22;20410;55.578;12.968;2023-02-15T02:03:12;6.70;1.00
34135;DHT22;20410;55.578;12.968;2023-02-15T02:05:39;6.70;1.00
34135;DHT22;20410;55.578;12.968;2023-02-15T02:08:06;6.70;1.00
34135;DHT22;20410;55.578;12.968;2023-02-15T02:10:33;6.70;1.00
34135;DHT22;20410;55.578;12.968;2023-02-15T02:13:03;6.60;1.00
34135;DHT22;20410;55.578;12.968;2023-02-15T02:35:16;6.50;1.00
34135;DHT22;20410;55.578;12.968;2023-02-15T02:38:00;6.50;1.00
34135;DHT22;20410;55.578;12.968;2023-02-15T02:43:21;6.60;1.00
34135;DHT22;20410;55.578;12.968;2023-02-15T02:45:58;6.60;1.00
34135;DHT22;20410;55.578;12.968;2023-02-15T02:48:29;6.50;1.00
34135;DHT22;20410;55.578;12.968;2023-02-15T02:50:56;6.60;1.00
34135;DHT22;20410;55.578;12.968;2023-02-15T02:53:21;6.50;1.00
34135;DHT22;20410;55.578;12.968;2023-02-15T02:55:51;6.50;1.00
34135;DHT22;20410;55.578;12.968;2023-02-15T02:58:29;6.60;1.00
34135;DHT22;20410;55.578;12.968;2023-02-15T03:01:09;6.50;1.00
34135;DHT22;20410;55.578;12.968;2023-02-15T03:03:40;6.50;1.00
34135;DHT22;20410;55.578;12.968;2023-02-15T03:06:13;6.50;1.00
34135;DHT22;20410;55.578;12.968;2023-02-15T03:08:50;6.50;1.00
34135;DHT22;20410;55.578;12.968;2023-02-15T03:11:16;6.50;1.00
34135;DHT22;20410;55.578;12.968;2023-02-15T03:13:43;6.50;1.00
34135;DHT22;20410;55.578;12.968;2023-02-15T03:16:10;6.50;1.00
34135;DHT22;20410;55.578;12.968;2023-02-15T03:19:03;6.50;1.00
34135;DHT22;20410;55.578;12.968;2023-02-15T03:24:19;6.50;1.00
34135;DHT22;20410;55.578;12.968;2023-02-15T03:26:49;6.50;1.00
34135;DHT22;20410;55.578;12.968;2023-02-15T03:29:18;6.50;1.00
34135;DHT22;20410;55.578;12.968;2023-02-15T03:31:58;6.50;1.00
34135;DHT22;20410;55.578;12.968;2023-02-15T03:34:25;6.50;1.00
34135;DHT22;20410;55.578;12.968;2023-02-15T03:42:50;6.50;1.00
34135;DHT22;20410;55.578;12.968;2023-02-15T03:45:25;6.50;1.00
34135;DHT22;20410;55.578;12.968;2023-02-15T03:47:52;6.50;1.00
34135;DHT22;20410;55.578;12.968;2023-02-15T03:50:27;6.50;1.00
34135;DHT22;20410;55.578;12.968;2023-02-15T03:53:15;6.50;1.00
34135;DHT22;20410;55.578;12.968;2023-02-15T03:55:49;6.50;1.00
34135;DHT22;20410;55.578;12.968;2023-02-15T03:58:15;6.50;1.00
34135;DHT22;20410;55.578;12.968;2023-02-15T04:01:03;6.50;1.00
34135;DHT22;20410;55.578;12.968;2023-02-15T04:06:14;6.60;1.00
34135;DHT22;20410;55.578;12.968;2023-02-15T04:08:40;6.60;1.00
34135;DHT22;20410;55.578;12.968;2023-02-15T04:11:24;6.50;1.00
34135;DHT22;20410;55.578;12.968;2023-02-15T04:13:50;6.50;1.00
34135;DHT22;20410;55.578;12.968;2023-02-15T04:16:22;6.50;1.00
34135;DHT22;20410;55.578;12.968;2023-02-15T04:18:48;6.40;1.00
34135;DHT22;20410;55.578;12.968;2023-02-15T04:21:32;6.50;1.00
34135;DHT22;20410;55.578;12.968;2023-02-15T04:24:17;6.50;1.00
34135;DHT22;20410;55.578;12.968;2023-02-15T04:27:02;6.40;1.00
34135;DHT22;20410;55.578;12.968;2023-02-15T04:29:29;6.40;1.00
34135;DHT22;20410;55.578;12.968;2023-02-15T04:31:56;6.50;1.00
34135;DHT22;20410;55.578;12.968;2023-02-15T04:34:22;6.40;1.00
34135;DHT22;20410;55.578;12.968;2023-02-15T04:36:48;6.40;1.00
34135;DHT22;20410;55.578;12.968;2023-02-15T04:39:14;6.50;1.00
34135;DHT22;20410;55.578;12.968;2023-02-15T04:41:40;6.50;1.00
34135;DHT22;20410;55.578;12.968;2023-02-15T04:44:06;6.50;1.00
34135;DHT22;20410;55.578;12.968;2023-02-15T04:46:31;6.50;1.00
34135;DHT22;20410;55.578;12.968;2023-02-15T04:48:57;6.50;1.00
34135;DHT22;20410;55.578;12.968;2023-02-15T04:51:23;6.40;1.00
34135;DHT22;20410;55.578;12.968;2023-02-15T04:53:49;6.40;1.00
34135;DHT22;20410;55.578;12.968;2023-02-15T04:56:15;6.40;1.00
34135;DHT22;20410;55.578;12.968;2023-02-15T04:58:41;6.40;1.00
34135;DHT22;20410;55.578;12.968;2023-02-15T05:01:08;6.40;1.00
34135;DHT22;20410;55.578;12.968;2023-02-15T05:03:34;6.40;1.00
34135;DHT22;20410;55.578;12.968;2023-02-15T05:05:59;6.40;1.00
34135;DHT22;20410;55.578;12.968;2023-02-15T05:08:25;6.40;1.00
34135;DHT22;20410;55.578;12.968;2023-02-15T05:10:50;6.40;1.00
34135;DHT22;20410;55.578;12.968;2023-02-15T05:13:16;6.40;1.00
34135;DHT22;20410;55.578;12.968;2023-02-15T05:15:47;6.40;1.00
34135;DHT22;20410;55.578;12.968;2023-02-15T05:18:14;6.40;1.00
34135;DHT22;20410;55.578;12.968;2023-02-15T05:20:39;6.50;1.00
34135;DHT22;20410;55.578;12.968;2023-02-15T05:23:05;6.40;1.00
34135;DHT22;20410;55.578;12.968;2023-02-15T05:25:31;6.40;1.00
34135;DHT22;20410;55.578;12.968;2023-02-15T05:28:15;6.40;1.00
34135;DHT22;20410;55.578;12.968;2023-02-15T05:30:48;6.40;1.00
34135;DHT22;20410;55.578;12.968;2023-02-15T05:33:14;6.40;1.00
34135;DHT22;20410;55.578;12.968;2023-02-15T05:35:40;6.40;1.00
34135;DHT22;20410;55.578;12.968;2023-02-15T05:38:05;6.40;1.00
34135;DHT22;20410;55.578;12.968;2023-02-15T05:40:31;6.40;1.00
34135;DHT22;20410;55.578;12.968;2023-02-15T05:42:57;6.50;1.00
34135;DHT22;20410;55.578;12.968;2023-02-15T05:45:23;6.50;1.00
34135;DHT22;20410;55.578;12.968;2023-02-15T05:47:48;6.40;1.00
34135;DHT22;20410;55.578;12.968;2023-02-15T05:50:14;6.40;1.00
34135;DHT22;20410;55.578;12.968;2023-02-15T05:52:40;6.40;1.00
34135;DHT22;20410;55.578;12.968;2023-02-15T05:55:06;6.30;1.00
34135;DHT22;20410;55.578;12.968;2023-02-15T05:57:32;6.30;1.00
34135;DHT22;20410;55.578;12.968;2023-02-15T05:59:58;6.50;1.00
34135;DHT22;20410;55.578;12.968;2023-02-15T06:02:23;6.50;1.00
34135;DHT22;20410;55.578;12.968;2023-02-15T06:04:49;6.50;1.00
34135;DHT22;20410;55.578;12.968;2023-02-15T06:07:14;6.50;1.00
34135;DHT22;20410;55.578;12.968;2023-02-15T06:09:40;6.50;1.00
34135;DHT22;20410;55.578;12.968;2023-02-15T06:12:05;6.50;1.00
34135;DHT22;20410;55.578;12.968;2023-02-15T06:14:31;6.60;1.00
34135;DHT22;20410;55.578;12.968;2023-02-15T06:16:56;6.60;1.00
34135;DHT22;20410;55.578;12.968;2023-02-15T06:19:22;6.60;1.00
34135;DHT22;20410;55.578;12.968;2023-02-15T06:21:48;6.60;1.00
34135;DHT22;20410;55.578;12.968;2023-02-15T06:24:14;6.60;1.00
34135;DHT22;20410;55.578;12.968;2023-02-15T06:26:39;6.60;1.00
34135;DHT22;20410;55.578;12.968;2023-02-15T06:29:05;6.50;1.00
34135;DHT22;20410;55.578;12.968;2023-02-15T06:31:31;6.50;1.00
34135;DHT22;20410;55.578;12.968;2023-02-15T06:33:56;6.50;1.00
34135;DHT22;20410;55.578;12.968;2023-02-15T06:36:29;6.60;1.00
34135;DHT22;20410;55.578;12.968;2023-02-15T06:38:55;6.60;1.00
34135;DHT22;20410;55.578;12.968;2023-02-15T06:41:21;6.60;1.00
34135;DHT22;20410;55.578;12.968;2023-02-15T06:43:46;6.60;1.00
34135;DHT22;20410;55.578;12.968;2023-02-15T06:46:12;6.60;1.00
34135;DHT22;20410;55.578;12.968;2023-02-15T06:48:37;6.60;1.00
34135;DHT22;20410;55.578;12.968;2023-02-15T06:51:03;6.60;1.00
34135;DHT22;20410;55.578;12.968;2023-02-15T06:53:29;6.70;1.00
34135;DHT22;20410;55.578;12.968;2023-02-15T06:56:05;6.70;1.00
34135;DHT22;20410;55.578;12.968;2023-02-15T06:58:32;6.70;1.00
34135;DHT22;20410;55.578;12.968;2023-02-15T07:00:59;6.70;1.00
34135;DHT22;20410;55.578;12.968;2023-02-15T07:03:24;6.70;1.00
34135;DHT22;20410;55.578;12.968;2023-02-15T07:05:55;6.70;1.00
34135;DHT22;20410;55.578;12.968;2023-02-15T07:08:21;6.70;1.00
34135;DHT22;20410;55.578;12.968;2023-02-15T07:10:48;6.70;1.00
34135;DHT22;20410;55.578;12.968;2023-02-15T07:13:14;6.70;1.00
34135;DHT22;20410;55.578;12.968;2023-02-15T07:15:39;6.70;1.00
34135;DHT22;20410;55.578;12.968;2023-02-15T07:18:05;6.70;1.00
34135;DHT22;20410;55.578;12.968;2023-02-15T07:20:31;6.80;1.00
34135;DHT22;20410;55.578;12.968;2023-02-15T07:22:58;6.80;1.00
34135;DHT22;20410;55.578;12.968;2023-02-15T07:25:24;6.70;1.00
34135;DHT22;20410;55.578;12.968;2023-02-15T07:27:56;6.60;1.00
34135;DHT22;20410;55.578;12.968;2023-02-15T07:30:22;6.70;1.00
34135;DHT22;20410;55.578;12.968;2023-02-15T07:32:48;6.70;1.00
34135;DHT22;20410;55.578;12.968;2023-02-15T07:35:56;6.70;1.00
34135;DHT22;20410;55.578;12.968;2023-02-15T07:38:24;6.60;1.00
34135;DHT22;20410;55.578;12.968;2023-02-15T07:40:50;6.60;1.00
34135;DHT22;20410;55.578;12.968;2023-02-15T07:43:16;6.70;1.00
34135;DHT22;20410;55.578;12.968;2023-02-15T07:45:41;6.70;1.00
34135;DHT22;20410;55.578;12.968;2023-02-15T07:48:07;6.80;1.00
34135;DHT22;20410;55.578;12.968;2023-02-15T07:50:33;6.80;1.00
34135;DHT22;20410;55.578;12.968;2023-02-15T07:53:01;6.80;1.00
34135;DHT22;20410;55.578;12.968;2023-02-15T07:55:28;6.90;1.00
34135;DHT22;20410;55.578;12.968;2023-02-15T07:57:53;6.90;1.00
34135;DHT22;20410;55.578;12.968;2023-02-15T08:00:20;6.90;1.00
34135;DHT22;20410;55.578;12.968;2023-02-15T08:02:51;6.90;1.00
34135;DHT22;20410;55.578;12.968;2023-02-15T08:05:37;6.90;1.00
34135;DHT22;20410;55.578;12.968;2023-02-15T08:08:03;6.90;1.00
34135;DHT22;20410;55.578;12.968;2023-02-15T08:10:29;6.90;1.00
34135;DHT22;20410;55.578;12.968;2023-02-15T08:13:13;6.90;1.00
34135;DHT22;20410;55.578;12.968;2023-02-15T08:15:38;6.90;1.00
34135;DHT22;20410;55.578;12.968;2023-02-15T08:18:04;6.80;1.00
34135;DHT22;20410;55.578;12.968;2023-02-15T08:20:31;6.80;1.00
34135;DHT22;20410;55.578;12.968;2023-02-15T08:22:56;6.80;1.00
34135;DHT22;20410;55.578;12.968;2023-02-15T08:25:22;6.90;1.00
34135;DHT22;20410;55.578;12.968;2023-02-15T08:27:49;6.90;1.00
34135;DHT22;20410;55.578;12.968;2023-02-15T08:30:14;6.90;1.00
34135;DHT22;20410;55.578;12.968;2023-02-15T08:32:40;6.80;1.00
34135;DHT22;20410;55.578;12.968;2023-02-15T08:35:06;6.90;1.00
34135;DHT22;20410;55.578;12.968;2023-02-15T08:37:32;6.80;1.00
34135;DHT22;20410;55.578;12.968;2023-02-15T08:39:57;6.80;1.00
34135;DHT22;20410;55.578;12.968;2023-02-15T08:42:23;6.70;1.00
34135;DHT22;20410;55.578;12.968;2023-02-15T08:44:48;6.70;1.00
34135;DHT22;20410;55.578;12.968;2023-02-15T08:47:16;6.70;1.00
34135;DHT22;20410;55.578;12.968;2023-02-15T08:49:41;6.80;1.00
34135;DHT22;20410;55.578;12.968;2023-02-15T08:52:07;6.80;1.00
34135;DHT22;20410;55.578;12.968;2023-02-15T08:54:33;6.80;1.00
34135;DHT22;20410;55.578;12.968;2023-02-15T08:56:58;6.80;1.00
34135;DHT22;20410;55.578;12.968;2023-02-15T08:59:24;6.90;1.00
34135;DHT22;20410;55.578;12.968;2023-02-15T09:01:53;6.90;1.00
34135;DHT22;20410;55.578;12.968;2023-02-15T09:04:19;6.90;1.00
34135;DHT22;20410;55.578;12.968;2023-02-15T09:06:47;7.00;1.00
34135;DHT22;20410;55.578;12.968;2023-02-15T09:09:12;7.10;1.00
34135;DHT22;20410;55.578;12.968;2023-02-15T09:11:43;7.10;1.00
34135;DHT22;20410;55.578;12.968;2023-02-15T09:14:15;7.10;1.00
34135;DHT22;20410;55.578;12.968;2023-02-15T09:16:43;7.10;1.00
34135;DHT22;20410;55.578;12.968;2023-02-15T09:19:14;7.00;1.00
34135;DHT22;20410;55.578;12.968;2023-02-15T09:21:40;6.90;1.00
34135;DHT22;20410;55.578;12.968;2023-02-15T09:24:08;6.90;1.00
34135;DHT22;20410;55.578;12.968;2023-02-15T09:26:37;6.80;1.00
34135;DHT22;20410;55.578;12.968;2023-02-15T09:29:03;6.70;1.00
34135;DHT22;20410;55.578;12.968;2023-02-15T09:31:31;6.70;1.00
34135;DHT22;20410;55.578;12.968;2023-02-15T09:33:58;6.70;1.00
34135;DHT22;20410;55.578;12.968;2023-02-15T09:39:13;6.80;1.00
34135;DHT22;20410;55.578;12.968;2023-02-15T09:47:18;6.80;1.00
34135;DHT22;20410;55.578;12.968;2023-02-15T10:16:54;7.30;1.00
34135;DHT22;20410;55.578;12.968;2023-02-15T10:27:13;7.20;1.00
34135;DHT22;20410;55.578;12.968;2023-02-15T10:30:02;7.30;1.00
34135;DHT22;20410;55.578;12.968;2023-02-15T10:32:42;7.40;1.00
34135;DHT22;20410;55.578;12.968;2023-02-15T10:36:11;7.50;1.00
34135;DHT22;20410;55.578;12.968;2023-02-15T10:38:15;7.50;1.00
34135;DHT22;20410;55.578;12.968;2023-02-15T10:43:49;7.50;1.00
34135;DHT22;20410;55.578;12.968;2023-02-15T11:02:34;7.60;1.00
34135;DHT22;20410;55.578;12.968;2023-02-15T11:05:39;7.60;1.00
34135;DHT22;20410;55.578;12.968;2023-02-15T11:08:09;7.60;1.00
34135;DHT22;20410;55.578;12.968;2023-02-15T11:13:11;7.40;1.00
34135;DHT22;20410;55.578;12.968;2023-02-15T11:15:57;7.40;1.00
34135;DHT22;20410;55.578;12.968;2023-02-15T11:18:35;7.30;1.00
34135;DHT22;20410;55.578;12.968;2023-02-15T11:23:41;7.30;1.00
34135;DHT22;20410;55.578;12.968;2023-02-15T11:26:29;7.30;1.00
34135;DHT22;20410;55.578;12.968;2023-02-15T11:29:20;7.30;1.00
34135;DHT22;20410;55.578;12.968;2023-02-15T11:31:55;7.30;1.00
34135;DHT22;20410;55.578;12.968;2023-02-15T11:34:36;7.30;1.00
34135;DHT22;20410;55.578;12.968;2023-02-15T11:37:10;7.40;1.00
34135;DHT22;20410;55.578;12.968;2023-02-15T11:39:36;7.40;1.00
34135;DHT22;20410;55.578;12.968;2023-02-15T11:42:10;7.50;1.00
34135;DHT22;20410;55.578;12.968;2023-02-15T11:44:59;7.60;1.00
34135;DHT22;20410;55.578;12.968;2023-02-15T11:47:27;7.50;1.00
34135;DHT22;20410;55.578;12.968;2023-02-15T11:49:53;7.50;1.00
34135;DHT22;20410;55.578;12.968;2023-02-15T11:52:18;7.60;1.00
34135;DHT22;20410;55.578;12.968;2023-02-15T11:54:47;7.70;1.00
34135;DHT22;20410;55.578;12.968;2023-02-15T11:57:36;7.70;1.00
34135;DHT22;20410;55.578;12.968;2023-02-15T12:00:20;7.60;1.00
34135;DHT22;20410;55.578;12.968;2023-02-15T12:02:52;7.60;1.00
34135;DHT22;20410;55.578;12.968;2023-02-15T12:05:22;7.70;1.00
34135;DHT22;20410;55.578;12.968;2023-02-15T12:08:00;7.70;1.00
34135;DHT22;20410;55.578;12.968;2023-02-15T12:10:34;7.80;1.00
34135;DHT22;20410;55.578;12.968;2023-02-15T12:15:41;7.80;1.00
34135;DHT22;20410;55.578;12.968;2023-02-15T12:18:20;7.90;1.00
34135;DHT22;20410;55.578;12.968;2023-02-15T12:20:46;7.90;1.00
34135;DHT22;20410;55.578;12.968;2023-02-15T12:23:13;8.00;1.00
34135;DHT22;20410;55.578;12.968;2023-02-15T12:25:53;8.10;1.00
34135;DHT22;20410;55.578;12.968;2023-02-15T12:30:54;8.00;1.00
34135;DHT22;20410;55.578;12.968;2023-02-15T12:35:47;8.00;1.00
34135;DHT22;20410;55.578;12.968;2023-02-15T12:40:40;8.00;1.00
34135;DHT22;20410;55.578;12.968;2023-02-15T12:43:37;8.00;1.00
34135;DHT22;20410;55.578;12.968;2023-02-15T12:46:23;8.00;1.00
34135;DHT22;20410;55.578;12.968;2023-02-15T12:49:06;7.90;1.00
34135;DHT22;20410;55.578;12.968;2023-02-15T12:51:43;7.80;1.00
34135;DHT22;20410;55.578;12.968;2023-02-15T12:56:47;7.60;1.00
34135;DHT22;20410;55.578;12.968;2023-02-15T12:59:14;7.60;1.00
34135;DHT22;20410;55.578;12.968;2023-02-15T13:01:46;7.70;1.00
34135;DHT22;20410;55.578;12.968;2023-02-15T13:06:49;7.60;1.00
34135;DHT22;20410;55.578;12.968;2023-02-15T13:09:34;7.70;1.00
34135;DHT22;20410;55.578;12.968;2023-02-15T13:12:23;7.70;1.00
34135;DHT22;20410;55.578;12.968;2023-02-15T13:14:52;7.70;1.00
34135;DHT22;20410;55.578;12.968;2023-02-15T13:17:31;7.70;1.00
34135;DHT22;20410;55.578;12.968;2023-02-15T13:20:05;7.60;1.00
34135;DHT22;20410;55.578;12.968;2023-02-15T13:22:45;7.60;1.00
34135;DHT22;20410;55.578;12.968;2023-02-15T13:25:27;7.60;1.00
34135;DHT22;20410;55.578;12.968;2023-02-15T13:28:05;7.50;1.00
34135;DHT22;20410;55.578;12.968;2023-02-15T13:30:35;7.50;1.00
34135;DHT22;20410;55.578;12.968;2023-02-15T13:33:04;7.50;1.00
34135;DHT22;20410;55.578;12.968;2023-02-15T13:35:42;7.50;1.00
34135;DHT22;20410;55.578;12.968;2023-02-15T13:41:09;7.60;1.00
34135;DHT22;20410;55.578;12.968;2023-02-15T13:49:42;7.70;1.00
34135;DHT22;20410;55.578;12.968;2023-02-15T13:52:13;7.60;1.00
34135;DHT22;20410;55.578;12.968;2023-02-15T13:54:55;7.50;1.00
34135;DHT22;20410;55.578;12.968;2023-02-15T13:57:43;7.50;1.00
34135;DHT22;20410;55.578;12.968;2023-02-15T14:00:32;7.60;1.00
34135;DHT22;20410;55.578;12.968;2023-02-15T14:06:14;7.60;1.00
34135;DHT22;20410;55.578;12.968;2023-02-15T14:14:17;7.40;1.00
34135;DHT22;20410;55.578;12.968;2023-02-15T14:19:48;7.30;1.00
34135;DHT22;20410;55.578;12.968;2023-02-15T14:22:30;7.30;1.00
34135;DHT22;20410;55.578;12.968;2023-02-15T14:25:21;7.30;1.00
34135;DHT22;20410;55.578;12.968;2023-02-15T14:28:11;7.20;1.00
34135;DHT22;20410;55.578;12.968;2023-02-15T14:30:42;7.10;1.00
34135;DHT22;20410;55.578;12.968;2023-02-15T14:35:59;7.10;1.00
34135;DHT22;20410;55.578;12.968;2023-02-15T14:41:43;7.10;1.00
34135;DHT22;20410;55.578;12.968;2023-02-15T14:44:35;7.10;1.00
34135;DHT22;20410;55.578;12.968;2023-02-15T14:47:18;7.10;1.00
34135;DHT22;20410;55.578;12.968;2023-02-15T14:49:47;7.10;1.00
34135;DHT22;20410;55.578;12.968;2023-02-15T14:52:13;7.00;1.00
34135;DHT22;20410;55.578;12.968;2023-02-15T15:04:41;6.80;1.00
34135;DHT22;20410;55.578;12.968;2023-02-15T15:07:22;6.80;1.00
34135;DHT22;20410;55.578;12.968;2023-02-15T15:12:56;6.70;1.00
34135;DHT22;20410;55.578;12.968;2023-02-15T15:18:10;6.50;1.00
34135;DHT22;20410;55.578;12.968;2023-02-15T15:20:55;6.40;1.00
34135;DHT22;20410;55.578;12.968;2023-02-15T15:25:47;6.20;1.00
34135;DHT22;20410;55.578;12.968;2023-02-15T15:31:24;6.20;1.00
34135;DHT22;20410;55.578;12.968;2023-02-15T15:42:43;5.90;1.00
34135;DHT22;20410;55.578;12.968;2023-02-15T15:48:32;5.90;1.00
34135;DHT22;20410;55.578;12.968;2023-02-15T15:51:30;5.80;1.00
34135;DHT22;20410;55.578;12.968;2023-02-15T15:53:56;5.80;1.00
34135;DHT22;20410;55.578;12.968;2023-02-15T15:56:31;5.80;1.00
34135;DHT22;20410;55.578;12.968;2023-02-15T15:59:01;5.80;1.00
34135;DHT22;20410;55.578;12.968;2023-02-15T16:01:29;5.70;1.00
34135;DHT22;20410;55.578;12.968;2023-02-15T16:03:58;5.70;1.00
34135;DHT22;20410;55.578;12.968;2023-02-15T16:06:36;5.70;1.00
34135;DHT22;20410;55.578;12.968;2023-02-15T16:09:23;5.60;1.00
34135;DHT22;20410;55.578;12.968;2023-02-15T16:11:59;5.50;1.00
34135;DHT22;20410;55.578;12.968;2023-02-15T16:14:37;5.60;1.00
34135;DHT22;20410;55.578;12.968;2023-02-15T16:17:13;5.50;1.00
34135;DHT22;20410;55.578;12.968;2023-02-15T16:19:43;5.50;1.00
34135;DHT22;20410;55.578;12.968;2023-02-15T16:22:34;5.50;1.00
34135;DHT22;20410;55.578;12.968;2023-02-15T16:28:08;5.50;1.00
34135;DHT22;20410;55.578;12.968;2023-02-15T16:30:37;5.50;1.00
34135;DHT22;20410;55.578;12.968;2023-02-15T16:35:34;5.40;1.00
34135;DHT22;20410;55.578;12.968;2023-02-15T16:38:01;5.40;1.00
34135;DHT22;20410;55.578;12.968;2023-02-15T16:43:15;5.40;1.00
34135;DHT22;20410;55.578;12.968;2023-02-15T16:45:42;5.40;1.00
34135;DHT22;20410;55.578;12.968;2023-02-15T16:48:13;5.40;1.00
34135;DHT22;20410;55.578;12.968;2023-02-15T16:50:47;5.50;1.00
34135;DHT22;20410;55.578;12.968;2023-02-15T16:53:18;5.50;1.00
34135;DHT22;20410;55.578;12.968;2023-02-15T16:55:49;5.50;1.00
34135;DHT22;20410;55.578;12.968;2023-02-15T16:58:17;5.50;1.00
34135;DHT22;20410;55.578;12.968;2023-02-15T17:00:43;5.40;1.00
34135;DHT22;20410;55.578;12.968;2023-02-15T17:05:44;5.30;1.00
34135;DHT22;20410;55.578;12.968;2023-02-15T17:13:29;5.20;1.00
34135;DHT22;20410;55.578;12.968;2023-02-15T17:18:38;5.20;1.00
34135;DHT22;20410;55.578;12.968;2023-02-15T17:21:18;5.20;1.00
34135;DHT22;20410;55.578;12.968;2023-02-15T17:23:47;5.10;1.00
34135;DHT22;20410;55.578;12.968;2023-02-15T17:26:19;5.10;1.00
34135;DHT22;20410;55.578;12.968;2023-02-15T17:28:47;5.20;1.00
34135;DHT22;20410;55.578;12.968;2023-02-15T17:31:16;5.20;1.00
34135;DHT22;20410;55.578;12.968;2023-02-15T17:33:42;5.20;1.00
34135;DHT22;20410;55.578;12.968;2023-02-15T17:36:19;5.20;1.00
34135;DHT22;20410;55.578;12.968;2023-02-15T17:39:18;5.20;1.00
34135;DHT22;20410;55.578;12.968;2023-02-15T17:41:44;5.30;1.00
34135;DHT22;20410;55.578;12.968;2023-02-15T17:44:09;5.30;1.00
34135;DHT22;20410;55.578;12.968;2023-02-15T17:46:40;5.30;1.00
34135;DHT22;20410;55.578;12.968;2023-02-15T17:49:06;5.30;1.00
34135;DHT22;20410;55.578;12.968;2023-02-15T17:51:32;5.30;1.00
34135;DHT22;20410;55.578;12.968;2023-02-15T17:54:01;5.20;1.00
34135;DHT22;20410;55.578;12.968;2023-02-15T17:56:45;5.20;1.00
34135;DHT22;20410;55.578;12.968;2023-02-15T17:59:11;5.10;1.00
34135;DHT22;20410;55.578;12.968;2023-02-15T18:01:45;5.10;1.00
34135;DHT22;20410;55.578;12.968;2023-02-15T18:04:32;5.10;1.00
34135;DHT22;20410;55.578;12.968;2023-02-15T18:07:18;5.20;1.00
34135;DHT22;20410;55.578;12.968;2023-02-15T18:10:15;5.20;1.00
34135;DHT22;20410;55.578;12.968;2023-02-15T18:13:00;5.20;1.00
34135;DHT22;20410;55.578;12.968;2023-02-15T18:15:26;5.30;1.00
34135;DHT22;20410;55.578;12.968;2023-02-15T18:17:52;5.40;1.00
34135;DHT22;20410;55.578;12.968;2023-02-15T18:20:21;5.40;1.00
34135;DHT22;20410;55.578;12.968;2023-02-15T18:22:48;5.40;1.00
34135;DHT22;20410;55.578;12.968;2023-02-15T18:25:18;5.40;1.00
34135;DHT22;20410;55.578;12.968;2023-02-15T18:27:44;5.30;1.00
34135;DHT22;20410;55.578;12.968;2023-02-15T18:30:18;5.30;1.00
34135;DHT22;20410;55.578;12.968;2023-02-15T18:32:44;5.30;1.00
34135;DHT22;20410;55.578;12.968;2023-02-15T18:35:15;5.30;1.00
34135;DHT22;20410;55.578;12.968;2023-02-15T18:37:42;5.30;1.00
34135;DHT22;20410;55.578;12.968;2023-02-15T18:40:18;5.30;1.00
34135;DHT22;20410;55.578;12.968;2023-02-15T18:42:45;5.30;1.00
34135;DHT22;20410;55.578;12.968;2023-02-15T18:45:18;5.30;1.00
34135;DHT22;20410;55.578;12.968;2023-02-15T18:47:44;5.30;1.00
34135;DHT22;20410;55.578;12.968;2023-02-15T18:50:15;5.40;1.00
34135;DHT22;20410;55.578;12.968;2023-02-15T18:52:43;5.40;1.00
34135;DHT22;20410;55.578;12.968;2023-02-15T18:55:16;5.40;1.00
34135;DHT22;20410;55.578;12.968;2023-02-15T18:57:43;5.40;1.00
34135;DHT22;20410;55.578;12.968;2023-02-15T19:00:17;5.30;1.00
34135;DHT22;20410;55.578;12.968;2023-02-15T19:02:43;5.30;1.00
34135;DHT22;20410;55.578;12.968;2023-02-15T19:05:10;5.30;1.00
34135;DHT22;20410;55.578;12.968;2023-02-15T19:07:36;5.40;1.00
34135;DHT22;20410;55.578;12.968;2023-02-15T19:10:04;5.40;1.00
34135;DHT22;20410;55.578;12.968;2023-02-15T19:12:30;5.30;1.00
34135;DHT22;20410;55.578;12.968;2023-02-15T19:14:56;5.10;1.00
34135;DHT22;20410;55.578;12.968;2023-02-15T19:17:22;5.10;1.00
34135;DHT22;20410;55.578;12.968;2023-02-15T19:19:50;5.10;1.00
34135;DHT22;20410;55.578;12.968;2023-02-15T19:22:27;5.10;1.00
34135;DHT22;20410;55.578;12.968;2023-02-15T19:24:55;5.10;1.00
34135;DHT22;20410;55.578;12.968;2023-02-15T19:27:28;5.10;1.00
34135;DHT22;20410;55.578;12.968;2023-02-15T19:30:00;5.00;1.00